sensor_id;sensor_type;location;lat;lon;timestamp;P1;durP1;ratioP1;P2;durP2;ratioP2
80852;SDS011;70270;43.434;28.338;2024-02-26T00:02:34;23.58;;;13.50;;
80852;SDS011;70270;43.434;28.338;2024-02-26T00:05:22;19.98;;;13.07;;
80852;SDS011;70270;43.434;28.338;2024-02-26T00:08:06;18.65;;;13.27;;
80852;SDS011;70270;43.434;28.338;2024-02-26T00:10:51;27.25;;;14.13;;
80852;SDS011;70270;43.434;28.338;2024-02-26T00:13:35;28.38;;;14.52;;
80852;SDS011;70270;43.434;28.338;2024-02-26T00:16:20;23.55;;;13.13;;
80852;SDS011;70270;43.434;28.338;2024-02-26T00:19:04;22.63;;;13.10;;
80852;SDS011;70270;43.434;28.338;2024-02-26T00:21:49;22.58;;;13.57;;
80852;SDS011;70270;43.434;28.338;2024-02-26T00:24:33;21.90;;;13.45;;
80852;SDS011;70270;43.434;28.338;2024-02-26T00:27:18;21.63;;;13.02;;
80852;SDS011;70270;43.434;28.338;2024-02-26T00:30:02;22.38;;;13.35;;
80852;SDS011;70270;43.434;28.338;2024-02-26T00:32:47;25.27;;;13.23;;
80852;SDS011;70270;43.434;28.338;2024-02-26T00:35:32;23.60;;;13.13;;
80852;SDS011;70270;43.434;28.338;2024-02-26T00:38:17;19.05;;;12.85;;
80852;SDS011;70270;43.434;28.338;2024-02-26T00:41:01;24.88;;;13.95;;
80852;SDS011;70270;43.434;28.338;2024-02-26T00:43:46;27.95;;;14.27;;
80852;SDS011;70270;43.434;28.338;2024-02-26T00:46:31;25.75;;;14.25;;
80852;SDS011;70270;43.434;28.338;2024-02-26T00:49:16;24.95;;;13.60;;
80852;SDS011;70270;43.434;28.338;2024-02-26T00:52:00;27.70;;;14.57;;
80852;SDS011;70270;43.434;28.338;2024-02-26T00:54:45;24.27;;;13.85;;
80852;SDS011;70270;43.434;28.338;2024-02-26T00:57:29;20.95;;;14.45;;
80852;SDS011;70270;43.434;28.338;2024-02-26T01:00:14;23.75;;;14.98;;
80852;SDS011;70270;43.434;28.338;2024-02-26T01:02:58;24.50;;;16.00;;
80852;SDS011;70270;43.434;28.338;2024-02-26T01:05:44;29.17;;;15.23;;
80852;SDS011;70270;43.434;28.338;2024-02-26T01:08:29;24.77;;;15.02;;
80852;SDS011;70270;43.434;28.338;2024-02-26T01:11:13;31.42;;;14.88;;
80852;SDS011;70270;43.434;28.338;2024-02-26T01:13:58;23.77;;;14.48;;
80852;SDS011;70270;43.434;28.338;2024-02-26T01:16:42;23.23;;;13.52;;
80852;SDS011;70270;43.434;28.338;2024-02-26T01:19:26;29.63;;;14.82;;
80852;SDS011;70270;43.434;28.338;2024-02-26T01:22:11;25.75;;;13.98;;
80852;SDS011;70270;43.434;28.338;2024-02-26T01:24:55;24.10;;;13.60;;
80852;SDS011;70270;43.434;28.338;2024-02-26T01:27:41;23.77;;;13.52;;
80852;SDS011;70270;43.434;28.338;2024-02-26T01:30:27;24.92;;;13.50;;
80852;SDS011;70270;43.434;28.338;2024-02-26T01:33:11;30.20;;;14.02;;
80852;SDS011;70270;43.434;28.338;2024-02-26T01:35:55;23.23;;;15.55;;
80852;SDS011;70270;43.434;28.338;2024-02-26T01:38:40;26.80;;;13.95;;
80852;SDS011;70270;43.434;28.338;2024-02-26T01:41:24;24.60;;;14.48;;
80852;SDS011;70270;43.434;28.338;2024-02-26T01:44:11;22.60;;;14.20;;
80852;SDS011;70270;43.434;28.338;2024-02-26T01:46:57;22.80;;;14.20;;
80852;SDS011;70270;43.434;28.338;2024-02-26T01:49:42;22.15;;;13.93;;
80852;SDS011;70270;43.434;28.338;2024-02-26T01:52:26;27.20;;;13.88;;
80852;SDS011;70270;43.434;28.338;2024-02-26T01:55:11;27.67;;;14.88;;
80852;SDS011;70270;43.434;28.338;2024-02-26T01:57:55;27.48;;;13.63;;
80852;SDS011;70270;43.434;28.338;2024-02-26T02:00:40;23.85;;;13.55;;
80852;SDS011;70270;43.434;28.338;2024-02-26T02:03:25;20.38;;;13.32;;
80852;SDS011;70270;43.434;28.338;2024-02-26T02:06:09;25.67;;;13.75;;
80852;SDS011;70270;43.434;28.338;2024-02-26T02:08:54;24.75;;;14.98;;
80852;SDS011;70270;43.434;28.338;2024-02-26T02:11:38;25.83;;;12.95;;
80852;SDS011;70270;43.434;28.338;2024-02-26T02:14:23;23.52;;;12.90;;
80852;SDS011;70270;43.434;28.338;2024-02-26T02:17:09;25.75;;;13.50;;
80852;SDS011;70270;43.434;28.338;2024-02-26T02:19:54;25.65;;;13.05;;
80852;SDS011;70270;43.434;28.338;2024-02-26T02:22:38;25.17;;;13.60;;
80852;SDS011;70270;43.434;28.338;2024-02-26T02:25:23;25.92;;;14.10;;
80852;SDS011;70270;43.434;28.338;2024-02-26T02:28:07;28.40;;;12.98;;
80852;SDS011;70270;43.434;28.338;2024-02-26T02:30:53;25.48;;;12.48;;
80852;SDS011;70270;43.434;28.338;2024-02-26T02:33:38;26.30;;;13.07;;
80852;SDS011;70270;43.434;28.338;2024-02-26T02:36:23;27.92;;;14.25;;
80852;SDS011;70270;43.434;28.338;2024-02-26T02:39:07;42.75;;;22.35;;
80852;SDS011;70270;43.434;28.338;2024-02-26T02:41:52;29.55;;;14.57;;
80852;SDS011;70270;43.434;28.338;2024-02-26T02:44:36;44.35;;;23.10;;
80852;SDS011;70270;43.434;28.338;2024-02-26T02:47:21;27.92;;;13.90;;
80852;SDS011;70270;43.434;28.338;2024-02-26T02:50:05;27.17;;;13.80;;
80852;SDS011;70270;43.434;28.338;2024-02-26T02:52:50;21.92;;;12.85;;
80852;SDS011;70270;43.434;28.338;2024-02-26T02:55:35;19.10;;;11.68;;
80852;SDS011;70270;43.434;28.338;2024-02-26T02:58:19;25.50;;;13.27;;
80852;SDS011;70270;43.434;28.338;2024-02-26T03:01:04;26.27;;;13.27;;
80852;SDS011;70270;43.434;28.338;2024-02-26T03:03:48;29.15;;;12.88;;
80852;SDS011;70270;43.434;28.338;2024-02-26T03:06:33;23.30;;;13.52;;
80852;SDS011;70270;43.434;28.338;2024-02-26T03:09:17;25.70;;;13.20;;
80852;SDS011;70270;43.434;28.338;2024-02-26T03:12:02;22.75;;;12.70;;
80852;SDS011;70270;43.434;28.338;2024-02-26T03:14:46;27.20;;;12.80;;
80852;SDS011;70270;43.434;28.338;2024-02-26T03:17:31;22.90;;;12.10;;
80852;SDS011;70270;43.434;28.338;2024-02-26T03:20:15;24.55;;;12.75;;
80852;SDS011;70270;43.434;28.338;2024-02-26T03:23:03;19.73;;;11.93;;
80852;SDS011;70270;43.434;28.338;2024-02-26T03:25:48;27.40;;;13.25;;
80852;SDS011;70270;43.434;28.338;2024-02-26T03:28:32;23.77;;;11.63;;
80852;SDS011;70270;43.434;28.338;2024-02-26T03:31:17;22.75;;;11.93;;
80852;SDS011;70270;43.434;28.338;2024-02-26T03:34:01;23.85;;;11.88;;
80852;SDS011;70270;43.434;28.338;2024-02-26T03:36:46;22.70;;;11.63;;
80852;SDS011;70270;43.434;28.338;2024-02-26T03:39:30;21.08;;;12.00;;
80852;SDS011;70270;43.434;28.338;2024-02-26T03:42:14;25.45;;;13.48;;
80852;SDS011;70270;43.434;28.338;2024-02-26T03:45:00;26.08;;;12.00;;
80852;SDS011;70270;43.434;28.338;2024-02-26T03:47:44;20.67;;;11.77;;
80852;SDS011;70270;43.434;28.338;2024-02-26T03:50:29;22.63;;;11.68;;
80852;SDS011;70270;43.434;28.338;2024-02-26T03:53:13;29.98;;;17.27;;
80852;SDS011;70270;43.434;28.338;2024-02-26T03:55:58;24.58;;;13.57;;
80852;SDS011;70270;43.434;28.338;2024-02-26T03:58:47;19.40;;;11.85;;
80852;SDS011;70270;43.434;28.338;2024-02-26T04:01:32;25.05;;;12.48;;
80852;SDS011;70270;43.434;28.338;2024-02-26T04:04:16;20.55;;;11.85;;
80852;SDS011;70270;43.434;28.338;2024-02-26T04:07:00;26.40;;;12.20;;
80852;SDS011;70270;43.434;28.338;2024-02-26T04:09:45;22.70;;;11.90;;
80852;SDS011;70270;43.434;28.338;2024-02-26T04:12:30;18.73;;;11.18;;
80852;SDS011;70270;43.434;28.338;2024-02-26T04:15:15;23.60;;;14.25;;
80852;SDS011;70270;43.434;28.338;2024-02-26T04:17:59;19.50;;;12.02;;
80852;SDS011;70270;43.434;28.338;2024-02-26T04:20:44;21.73;;;10.70;;
80852;SDS011;70270;43.434;28.338;2024-02-26T04:23:28;21.00;;;10.43;;
80852;SDS011;70270;43.434;28.338;2024-02-26T04:26:13;23.33;;;11.32;;
80852;SDS011;70270;43.434;28.338;2024-02-26T04:28:57;21.20;;;10.63;;
80852;SDS011;70270;43.434;28.338;2024-02-26T04:31:42;21.67;;;10.93;;
80852;SDS011;70270;43.434;28.338;2024-02-26T04:34:27;21.05;;;11.10;;
80852;SDS011;70270;43.434;28.338;2024-02-26T04:37:11;18.80;;;11.25;;
80852;SDS011;70270;43.434;28.338;2024-02-26T04:39:59;20.40;;;11.40;;
80852;SDS011;70270;43.434;28.338;2024-02-26T04:42:44;19.00;;;11.18;;
80852;SDS011;70270;43.434;28.338;2024-02-26T04:45:29;20.08;;;11.85;;
80852;SDS011;70270;43.434;28.338;2024-02-26T04:48:13;19.10;;;12.65;;
80852;SDS011;70270;43.434;28.338;2024-02-26T04:50:58;24.30;;;14.15;;
80852;SDS011;70270;43.434;28.338;2024-02-26T04:53:42;29.25;;;15.55;;
80852;SDS011;70270;43.434;28.338;2024-02-26T04:56:26;31.30;;;15.73;;
80852;SDS011;70270;43.434;28.338;2024-02-26T04:59:11;30.10;;;14.77;;
80852;SDS011;70270;43.434;28.338;2024-02-26T05:01:55;40.83;;;16.63;;
80852;SDS011;70270;43.434;28.338;2024-02-26T05:04:40;21.85;;;12.40;;
80852;SDS011;70270;43.434;28.338;2024-02-26T05:07:25;21.90;;;12.57;;
80852;SDS011;70270;43.434;28.338;2024-02-26T05:10:09;24.52;;;13.13;;
80852;SDS011;70270;43.434;28.338;2024-02-26T05:12:54;101.93;;;47.67;;
80852;SDS011;70270;43.434;28.338;2024-02-26T05:15:39;31.15;;;14.23;;
80852;SDS011;70270;43.434;28.338;2024-02-26T05:18:23;22.73;;;11.60;;
80852;SDS011;70270;43.434;28.338;2024-02-26T05:21:08;19.73;;;10.70;;
80852;SDS011;70270;43.434;28.338;2024-02-26T05:23:52;20.42;;;10.55;;
80852;SDS011;70270;43.434;28.338;2024-02-26T05:26:37;34.33;;;11.93;;
80852;SDS011;70270;43.434;28.338;2024-02-26T05:29:22;25.83;;;12.68;;
80852;SDS011;70270;43.434;28.338;2024-02-26T05:32:06;23.17;;;10.90;;
80852;SDS011;70270;43.434;28.338;2024-02-26T05:34:51;23.20;;;11.40;;
80852;SDS011;70270;43.434;28.338;2024-02-26T05:37:35;28.60;;;11.30;;
80852;SDS011;70270;43.434;28.338;2024-02-26T05:40:20;23.73;;;12.57;;
80852;SDS011;70270;43.434;28.338;2024-02-26T05:43:04;29.92;;;13.05;;
80852;SDS011;70270;43.434;28.338;2024-02-26T05:45:49;28.33;;;13.60;;
80852;SDS011;70270;43.434;28.338;2024-02-26T05:48:33;21.17;;;11.52;;
80852;SDS011;70270;43.434;28.338;2024-02-26T05:51:18;26.38;;;13.60;;
80852;SDS011;70270;43.434;28.338;2024-02-26T05:54:03;25.98;;;12.90;;
80852;SDS011;70270;43.434;28.338;2024-02-26T05:56:47;20.42;;;12.80;;
80852;SDS011;70270;43.434;28.338;2024-02-26T05:59:31;22.85;;;13.32;;
80852;SDS011;70270;43.434;28.338;2024-02-26T06:02:16;25.85;;;18.10;;
80852;SDS011;70270;43.434;28.338;2024-02-26T06:05:00;35.50;;;12.88;;
80852;SDS011;70270;43.434;28.338;2024-02-26T06:07:45;22.00;;;12.93;;
80852;SDS011;70270;43.434;28.338;2024-02-26T06:10:29;18.25;;;11.55;;
80852;SDS011;70270;43.434;28.338;2024-02-26T06:13:14;26.98;;;12.05;;
80852;SDS011;70270;43.434;28.338;2024-02-26T06:15:58;32.60;;;13.50;;
80852;SDS011;70270;43.434;28.338;2024-02-26T06:18:43;26.85;;;16.65;;
80852;SDS011;70270;43.434;28.338;2024-02-26T06:21:28;27.00;;;13.50;;
80852;SDS011;70270;43.434;28.338;2024-02-26T06:24:12;24.20;;;14.13;;
80852;SDS011;70270;43.434;28.338;2024-02-26T06:26:57;23.70;;;17.20;;
80852;SDS011;70270;43.434;28.338;2024-02-26T06:29:41;29.50;;;17.75;;
80852;SDS011;70270;43.434;28.338;2024-02-26T06:32:26;33.40;;;13.60;;
80852;SDS011;70270;43.434;28.338;2024-02-26T06:35:13;28.75;;;12.00;;
80852;SDS011;70270;43.434;28.338;2024-02-26T06:37:57;28.75;;;11.30;;
80852;SDS011;70270;43.434;28.338;2024-02-26T06:40:42;23.52;;;10.50;;
80852;SDS011;70270;43.434;28.338;2024-02-26T06:43:26;26.15;;;11.15;;
80852;SDS011;70270;43.434;28.338;2024-02-26T06:46:11;22.23;;;9.23;;
80852;SDS011;70270;43.434;28.338;2024-02-26T06:48:55;23.13;;;9.98;;
80852;SDS011;70270;43.434;28.338;2024-02-26T06:51:40;17.50;;;8.32;;
80852;SDS011;70270;43.434;28.338;2024-02-26T06:54:24;18.42;;;8.80;;
80852;SDS011;70270;43.434;28.338;2024-02-26T06:57:08;19.05;;;10.80;;
80852;SDS011;70270;43.434;28.338;2024-02-26T06:59:53;17.88;;;9.02;;
80852;SDS011;70270;43.434;28.338;2024-02-26T07:02:37;25.50;;;11.32;;
80852;SDS011;70270;43.434;28.338;2024-02-26T07:05:22;24.27;;;10.90;;
80852;SDS011;70270;43.434;28.338;2024-02-26T07:08:06;36.08;;;10.98;;
80852;SDS011;70270;43.434;28.338;2024-02-26T07:10:51;15.95;;;9.18;;
80852;SDS011;70270;43.434;28.338;2024-02-26T07:13:35;20.60;;;9.75;;
80852;SDS011;70270;43.434;28.338;2024-02-26T07:16:20;18.42;;;9.80;;
80852;SDS011;70270;43.434;28.338;2024-02-26T07:19:04;18.63;;;11.18;;
80852;SDS011;70270;43.434;28.338;2024-02-26T07:21:49;20.00;;;9.40;;
80852;SDS011;70270;43.434;28.338;2024-02-26T07:24:33;19.25;;;8.40;;
80852;SDS011;70270;43.434;28.338;2024-02-26T07:27:18;19.00;;;7.88;;
80852;SDS011;70270;43.434;28.338;2024-02-26T07:30:05;19.65;;;8.13;;
80852;SDS011;70270;43.434;28.338;2024-02-26T07:32:50;15.63;;;7.80;;
80852;SDS011;70270;43.434;28.338;2024-02-26T07:35:34;29.83;;;8.93;;
80852;SDS011;70270;43.434;28.338;2024-02-26T07:38:20;23.15;;;8.52;;
80852;SDS011;70270;43.434;28.338;2024-02-26T07:41:05;14.73;;;7.50;;
80852;SDS011;70270;43.434;28.338;2024-02-26T07:43:49;19.10;;;8.02;;
80852;SDS011;70270;43.434;28.338;2024-02-26T07:46:34;16.60;;;7.22;;
80852;SDS011;70270;43.434;28.338;2024-02-26T07:49:19;24.20;;;8.48;;
80852;SDS011;70270;43.434;28.338;2024-02-26T07:52:04;26.05;;;9.45;;
80852;SDS011;70270;43.434;28.338;2024-02-26T07:54:48;26.83;;;9.52;;
80852;SDS011;70270;43.434;28.338;2024-02-26T07:57:33;15.10;;;7.28;;
80852;SDS011;70270;43.434;28.338;2024-02-26T08:00:20;18.58;;;8.05;;
80852;SDS011;70270;43.434;28.338;2024-02-26T08:03:05;23.45;;;7.72;;
80852;SDS011;70270;43.434;28.338;2024-02-26T08:05:50;17.42;;;8.20;;
80852;SDS011;70270;43.434;28.338;2024-02-26T08:08:35;19.02;;;7.57;;
80852;SDS011;70270;43.434;28.338;2024-02-26T08:11:20;19.10;;;8.15;;
80852;SDS011;70270;43.434;28.338;2024-02-26T08:14:04;16.80;;;7.53;;
80852;SDS011;70270;43.434;28.338;2024-02-26T08:16:49;18.13;;;10.40;;
80852;SDS011;70270;43.434;28.338;2024-02-26T08:19:33;23.02;;;7.28;;
80852;SDS011;70270;43.434;28.338;2024-02-26T08:22:19;21.83;;;7.88;;
80852;SDS011;70270;43.434;28.338;2024-02-26T08:25:04;27.15;;;7.60;;
80852;SDS011;70270;43.434;28.338;2024-02-26T08:27:51;18.23;;;7.53;;
80852;SDS011;70270;43.434;28.338;2024-02-26T08:30:35;17.65;;;7.30;;
80852;SDS011;70270;43.434;28.338;2024-02-26T08:33:20;15.90;;;6.45;;
80852;SDS011;70270;43.434;28.338;2024-02-26T08:36:05;17.30;;;6.72;;
80852;SDS011;70270;43.434;28.338;2024-02-26T08:38:49;19.52;;;6.90;;
80852;SDS011;70270;43.434;28.338;2024-02-26T08:41:34;12.02;;;6.22;;
80852;SDS011;70270;43.434;28.338;2024-02-26T08:44:18;16.08;;;5.82;;
80852;SDS011;70270;43.434;28.338;2024-02-26T08:47:03;18.27;;;7.00;;
80852;SDS011;70270;43.434;28.338;2024-02-26T08:49:48;13.18;;;5.70;;
80852;SDS011;70270;43.434;28.338;2024-02-26T08:52:32;23.27;;;7.45;;
80852;SDS011;70270;43.434;28.338;2024-02-26T08:55:20;17.65;;;5.93;;
80852;SDS011;70270;43.434;28.338;2024-02-26T08:58:05;15.25;;;5.68;;
80852;SDS011;70270;43.434;28.338;2024-02-26T09:00:49;9.77;;;5.35;;
80852;SDS011;70270;43.434;28.338;2024-02-26T09:03:34;15.73;;;5.70;;
80852;SDS011;70270;43.434;28.338;2024-02-26T09:06:19;13.85;;;5.40;;
80852;SDS011;70270;43.434;28.338;2024-02-26T09:09:03;14.10;;;6.50;;
80852;SDS011;70270;43.434;28.338;2024-02-26T09:11:48;13.38;;;5.60;;
80852;SDS011;70270;43.434;28.338;2024-02-26T09:14:35;11.57;;;5.80;;
80852;SDS011;70270;43.434;28.338;2024-02-26T09:17:20;11.88;;;5.75;;
80852;SDS011;70270;43.434;28.338;2024-02-26T09:20:05;20.98;;;7.25;;
80852;SDS011;70270;43.434;28.338;2024-02-26T09:22:50;16.65;;;6.70;;
80852;SDS011;70270;43.434;28.338;2024-02-26T09:25:35;19.13;;;5.65;;
80852;SDS011;70270;43.434;28.338;2024-02-26T09:28:19;11.07;;;4.97;;
80852;SDS011;70270;43.434;28.338;2024-02-26T09:31:04;12.52;;;6.50;;
80852;SDS011;70270;43.434;28.338;2024-02-26T09:33:50;13.35;;;5.60;;
80852;SDS011;70270;43.434;28.338;2024-02-26T09:36:34;26.60;;;7.88;;
80852;SDS011;70270;43.434;28.338;2024-02-26T09:39:19;11.57;;;5.55;;
80852;SDS011;70270;43.434;28.338;2024-02-26T09:42:05;17.10;;;5.95;;
80852;SDS011;70270;43.434;28.338;2024-02-26T09:44:54;12.95;;;5.88;;
80852;SDS011;70270;43.434;28.338;2024-02-26T09:47:40;8.73;;;4.88;;
80852;SDS011;70270;43.434;28.338;2024-02-26T09:50:26;24.55;;;9.57;;
80852;SDS011;70270;43.434;28.338;2024-02-26T09:53:11;23.23;;;7.95;;
80852;SDS011;70270;43.434;28.338;2024-02-26T09:55:58;14.77;;;6.20;;
80852;SDS011;70270;43.434;28.338;2024-02-26T09:58:42;12.73;;;5.55;;
80852;SDS011;70270;43.434;28.338;2024-02-26T10:01:29;11.55;;;5.25;;
80852;SDS011;70270;43.434;28.338;2024-02-26T10:04:17;23.02;;;6.75;;
80852;SDS011;70270;43.434;28.338;2024-02-26T10:07:04;16.20;;;6.05;;
80852;SDS011;70270;43.434;28.338;2024-02-26T10:09:50;20.50;;;6.60;;
80852;SDS011;70270;43.434;28.338;2024-02-26T10:12:34;15.70;;;5.65;;
80852;SDS011;70270;43.434;28.338;2024-02-26T10:15:19;19.20;;;5.43;;
80852;SDS011;70270;43.434;28.338;2024-02-26T10:18:04;14.57;;;5.38;;
80852;SDS011;70270;43.434;28.338;2024-02-26T10:21:00;14.15;;;5.32;;
80852;SDS011;70270;43.434;28.338;2024-02-26T10:23:47;18.60;;;5.47;;
80852;SDS011;70270;43.434;28.338;2024-02-26T10:26:33;14.32;;;5.53;;
80852;SDS011;70270;43.434;28.338;2024-02-26T10:29:18;21.55;;;8.00;;
80852;SDS011;70270;43.434;28.338;2024-02-26T10:32:04;12.38;;;5.53;;
80852;SDS011;70270;43.434;28.338;2024-02-26T10:34:49;10.45;;;5.03;;
80852;SDS011;70270;43.434;28.338;2024-02-26T10:37:43;16.75;;;6.13;;
80852;SDS011;70270;43.434;28.338;2024-02-26T10:40:27;15.52;;;5.90;;
80852;SDS011;70270;43.434;28.338;2024-02-26T10:43:12;11.35;;;5.03;;
80852;SDS011;70270;43.434;28.338;2024-02-26T10:45:58;12.80;;;5.40;;
80852;SDS011;70270;43.434;28.338;2024-02-26T10:48:49;16.33;;;6.03;;
80852;SDS011;70270;43.434;28.338;2024-02-26T10:51:37;19.83;;;5.13;;
80852;SDS011;70270;43.434;28.338;2024-02-26T10:54:22;10.60;;;4.72;;
80852;SDS011;70270;43.434;28.338;2024-02-26T10:57:09;14.93;;;5.30;;
80852;SDS011;70270;43.434;28.338;2024-02-26T10:59:55;14.65;;;5.28;;
80852;SDS011;70270;43.434;28.338;2024-02-26T11:02:40;14.25;;;4.85;;
80852;SDS011;70270;43.434;28.338;2024-02-26T11:05:25;13.32;;;5.25;;
80852;SDS011;70270;43.434;28.338;2024-02-26T11:08:11;12.82;;;4.95;;
80852;SDS011;70270;43.434;28.338;2024-02-26T11:10:56;15.38;;;5.50;;
80852;SDS011;70270;43.434;28.338;2024-02-26T11:13:41;13.57;;;4.97;;
80852;SDS011;70270;43.434;28.338;2024-02-26T11:16:29;18.65;;;5.43;;
80852;SDS011;70270;43.434;28.338;2024-02-26T11:19:15;14.18;;;5.22;;
80852;SDS011;70270;43.434;28.338;2024-02-26T11:22:01;9.70;;;4.97;;
80852;SDS011;70270;43.434;28.338;2024-02-26T11:24:46;12.77;;;5.57;;
80852;SDS011;70270;43.434;28.338;2024-02-26T11:27:32;13.82;;;5.60;;
80852;SDS011;70270;43.434;28.338;2024-02-26T11:30:23;12.05;;;5.55;;
80852;SDS011;70270;43.434;28.338;2024-02-26T11:33:10;16.45;;;6.13;;
80852;SDS011;70270;43.434;28.338;2024-02-26T11:35:56;15.00;;;5.15;;
80852;SDS011;70270;43.434;28.338;2024-02-26T11:38:43;20.45;;;5.90;;
80852;SDS011;70270;43.434;28.338;2024-02-26T11:41:28;15.20;;;4.93;;
80852;SDS011;70270;43.434;28.338;2024-02-26T11:44:12;8.38;;;4.47;;
80852;SDS011;70270;43.434;28.338;2024-02-26T11:46:57;16.73;;;5.60;;
80852;SDS011;70270;43.434;28.338;2024-02-26T11:49:42;9.75;;;5.20;;
80852;SDS011;70270;43.434;28.338;2024-02-26T11:52:27;11.70;;;5.43;;
80852;SDS011;70270;43.434;28.338;2024-02-26T11:55:11;18.73;;;6.10;;
80852;SDS011;70270;43.434;28.338;2024-02-26T11:57:56;13.68;;;5.40;;
80852;SDS011;70270;43.434;28.338;2024-02-26T12:00:40;17.67;;;5.57;;
80852;SDS011;70270;43.434;28.338;2024-02-26T12:03:25;19.65;;;5.50;;
80852;SDS011;70270;43.434;28.338;2024-02-26T12:06:09;22.15;;;5.55;;
80852;SDS011;70270;43.434;28.338;2024-02-26T12:08:55;11.85;;;5.07;;
80852;SDS011;70270;43.434;28.338;2024-02-26T12:14:26;13.65;;;5.70;;
80852;SDS011;70270;43.434;28.338;2024-02-26T12:17:21;30.58;;;6.68;;
80852;SDS011;70270;43.434;28.338;2024-02-26T12:20:12;12.63;;;5.65;;
80852;SDS011;70270;43.434;28.338;2024-02-26T12:22:58;15.60;;;5.32;;
80852;SDS011;70270;43.434;28.338;2024-02-26T12:25:43;13.10;;;5.75;;
80852;SDS011;70270;43.434;28.338;2024-02-26T12:28:28;11.98;;;5.20;;
80852;SDS011;70270;43.434;28.338;2024-02-26T12:31:13;14.52;;;5.80;;
80852;SDS011;70270;43.434;28.338;2024-02-26T12:33:58;10.10;;;4.30;;
80852;SDS011;70270;43.434;28.338;2024-02-26T12:36:46;15.18;;;6.15;;
80852;SDS011;70270;43.434;28.338;2024-02-26T12:39:30;12.25;;;5.38;;
80852;SDS011;70270;43.434;28.338;2024-02-26T12:42:15;14.85;;;5.90;;
80852;SDS011;70270;43.434;28.338;2024-02-26T12:45:00;18.10;;;5.90;;
80852;SDS011;70270;43.434;28.338;2024-02-26T12:47:45;18.90;;;6.95;;
80852;SDS011;70270;43.434;28.338;2024-02-26T12:50:30;14.00;;;5.72;;
80852;SDS011;70270;43.434;28.338;2024-02-26T12:53:15;15.77;;;5.47;;
80852;SDS011;70270;43.434;28.338;2024-02-26T12:56:00;23.88;;;6.50;;
80852;SDS011;70270;43.434;28.338;2024-02-26T12:58:44;18.45;;;5.90;;
80852;SDS011;70270;43.434;28.338;2024-02-26T13:01:30;30.88;;;7.55;;
80852;SDS011;70270;43.434;28.338;2024-02-26T13:04:15;21.00;;;6.97;;
80852;SDS011;70270;43.434;28.338;2024-02-26T13:07:03;29.08;;;6.57;;
80852;SDS011;70270;43.434;28.338;2024-02-26T13:09:48;14.23;;;5.25;;
80852;SDS011;70270;43.434;28.338;2024-02-26T13:12:34;26.23;;;7.40;;
80852;SDS011;70270;43.434;28.338;2024-02-26T13:15:19;17.58;;;6.30;;
80852;SDS011;70270;43.434;28.338;2024-02-26T13:18:11;12.77;;;5.75;;
80852;SDS011;70270;43.434;28.338;2024-02-26T13:21:08;14.90;;;6.00;;
80852;SDS011;70270;43.434;28.338;2024-02-26T13:23:57;29.92;;;7.45;;
80852;SDS011;70270;43.434;28.338;2024-02-26T13:26:41;14.27;;;6.90;;
80852;SDS011;70270;43.434;28.338;2024-02-26T13:29:26;40.80;;;7.03;;
80852;SDS011;70270;43.434;28.338;2024-02-26T13:32:10;30.67;;;6.97;;
80852;SDS011;70270;43.434;28.338;2024-02-26T13:37:54;29.80;;;6.20;;
80852;SDS011;70270;43.434;28.338;2024-02-26T13:40:38;23.35;;;6.30;;
80852;SDS011;70270;43.434;28.338;2024-02-26T13:43:23;21.15;;;5.88;;
80852;SDS011;70270;43.434;28.338;2024-02-26T13:46:08;42.50;;;7.95;;
80852;SDS011;70270;43.434;28.338;2024-02-26T13:48:55;19.40;;;5.93;;
80852;SDS011;70270;43.434;28.338;2024-02-26T13:51:39;24.58;;;7.07;;
80852;SDS011;70270;43.434;28.338;2024-02-26T13:54:24;24.85;;;6.65;;
80852;SDS011;70270;43.434;28.338;2024-02-26T13:57:09;26.00;;;7.57;;
80852;SDS011;70270;43.434;28.338;2024-02-26T13:59:54;19.13;;;6.68;;
80852;SDS011;70270;43.434;28.338;2024-02-26T14:02:39;30.63;;;7.18;;
80852;SDS011;70270;43.434;28.338;2024-02-26T14:05:23;52.65;;;9.20;;
80852;SDS011;70270;43.434;28.338;2024-02-26T14:08:07;19.00;;;6.05;;
80852;SDS011;70270;43.434;28.338;2024-02-26T14:10:52;18.98;;;6.82;;
80852;SDS011;70270;43.434;28.338;2024-02-26T14:13:37;14.70;;;6.18;;
80852;SDS011;70270;43.434;28.338;2024-02-26T14:16:21;19.88;;;6.75;;
80852;SDS011;70270;43.434;28.338;2024-02-26T14:19:05;14.85;;;5.72;;
80852;SDS011;70270;43.434;28.338;2024-02-26T14:21:50;19.98;;;7.07;;
80852;SDS011;70270;43.434;28.338;2024-02-26T14:24:34;20.88;;;6.85;;
80852;SDS011;70270;43.434;28.338;2024-02-26T14:27:20;29.30;;;8.02;;
80852;SDS011;70270;43.434;28.338;2024-02-26T14:30:06;31.77;;;7.28;;
80852;SDS011;70270;43.434;28.338;2024-02-26T14:32:50;19.98;;;7.13;;
80852;SDS011;70270;43.434;28.338;2024-02-26T14:35:35;19.92;;;7.32;;
80852;SDS011;70270;43.434;28.338;2024-02-26T14:38:20;20.23;;;6.53;;
80852;SDS011;70270;43.434;28.338;2024-02-26T14:41:04;56.50;;;10.05;;
80852;SDS011;70270;43.434;28.338;2024-02-26T14:43:49;24.58;;;8.23;;
80852;SDS011;70270;43.434;28.338;2024-02-26T14:46:34;16.95;;;6.50;;
80852;SDS011;70270;43.434;28.338;2024-02-26T14:49:20;26.00;;;8.40;;
80852;SDS011;70270;43.434;28.338;2024-02-26T14:52:04;28.83;;;8.00;;
80852;SDS011;70270;43.434;28.338;2024-02-26T14:54:49;32.22;;;7.22;;
80852;SDS011;70270;43.434;28.338;2024-02-26T14:57:35;52.83;;;8.35;;
80852;SDS011;70270;43.434;28.338;2024-02-26T15:00:19;32.28;;;6.93;;
80852;SDS011;70270;43.434;28.338;2024-02-26T15:03:04;17.25;;;6.80;;
80852;SDS011;70270;43.434;28.338;2024-02-26T15:05:50;23.25;;;8.07;;
80852;SDS011;70270;43.434;28.338;2024-02-26T15:08:34;21.25;;;8.10;;
80852;SDS011;70270;43.434;28.338;2024-02-26T15:11:18;26.98;;;7.88;;
80852;SDS011;70270;43.434;28.338;2024-02-26T15:14:03;20.10;;;6.78;;
80852;SDS011;70270;43.434;28.338;2024-02-26T15:16:50;19.95;;;6.93;;
80852;SDS011;70270;43.434;28.338;2024-02-26T15:19:36;24.17;;;8.27;;
80852;SDS011;70270;43.434;28.338;2024-02-26T15:22:20;25.40;;;8.45;;
80852;SDS011;70270;43.434;28.338;2024-02-26T15:25:05;21.55;;;7.60;;
80852;SDS011;70270;43.434;28.338;2024-02-26T15:27:50;22.02;;;7.28;;
80852;SDS011;70270;43.434;28.338;2024-02-26T15:30:35;24.10;;;8.10;;
80852;SDS011;70270;43.434;28.338;2024-02-26T15:33:19;26.42;;;7.63;;
80852;SDS011;70270;43.434;28.338;2024-02-26T15:36:04;25.40;;;8.88;;
80852;SDS011;70270;43.434;28.338;2024-02-26T15:38:48;21.08;;;7.60;;
80852;SDS011;70270;43.434;28.338;2024-02-26T15:41:33;29.38;;;7.57;;
80852;SDS011;70270;43.434;28.338;2024-02-26T15:44:17;26.58;;;8.13;;
80852;SDS011;70270;43.434;28.338;2024-02-26T15:47:02;19.90;;;10.18;;
80852;SDS011;70270;43.434;28.338;2024-02-26T15:49:47;35.72;;;8.05;;
80852;SDS011;70270;43.434;28.338;2024-02-26T15:52:32;22.85;;;8.07;;
80852;SDS011;70270;43.434;28.338;2024-02-26T15:55:16;30.50;;;11.75;;
80852;SDS011;70270;43.434;28.338;2024-02-26T15:58:00;46.20;;;18.42;;
80852;SDS011;70270;43.434;28.338;2024-02-26T16:00:45;20.77;;;7.72;;
80852;SDS011;70270;43.434;28.338;2024-02-26T16:03:30;25.50;;;7.63;;
80852;SDS011;70270;43.434;28.338;2024-02-26T16:06:22;19.90;;;7.80;;